sensor_id;sensor_type;location;lat;lon;timestamp;P1;durP1;ratioP1;P2;durP2;ratioP2
34317;SDS011;20582;52.196;20.952;2023-02-15T00:01:50;64.13;;;33.38;;
34317;SDS011;20582;52.196;20.952;2023-02-15T00:04:18;68.68;;;35.10;;
34317;SDS011;20582;52.196;20.952;2023-02-15T00:06:44;67.32;;;34.42;;
34317;SDS011;20582;52.196;20.952;2023-02-15T00:09:10;69.00;;;35.55;;
34317;SDS011;20582;52.196;20.952;2023-02-15T00:11:36;66.90;;;35.35;;
34317;SDS011;20582;52.196;20.952;2023-02-15T00:14:08;65.35;;;34.08;;
34317;SDS011;20582;52.196;20.952;2023-02-15T00:16:34;69.82;;;33.83;;
34317;SDS011;20582;52.196;20.952;2023-02-15T00:19:01;66.32;;;35.88;;
34317;SDS011;20582;52.196;20.952;2023-02-15T00:21:30;68.85;;;33.78;;
34317;SDS011;20582;52.196;20.952;2023-02-15T00:23:57;66.85;;;34.97;;
34317;SDS011;20582;52.196;20.952;2023-02-15T00:26:24;70.45;;;36.22;;
34317;SDS011;20582;52.196;20.952;2023-02-15T00:28:50;72.10;;;37.22;;
34317;SDS011;20582;52.196;20.952;2023-02-15T00:31:16;73.47;;;36.80;;
34317;SDS011;20582;52.196;20.952;2023-02-15T00:33:42;75.60;;;36.08;;
34317;SDS011;20582;52.196;20.952;2023-02-15T00:36:08;72.13;;;36.70;;
34317;SDS011;20582;52.196;20.952;2023-02-15T00:38:35;71.88;;;36.28;;
34317;SDS011;20582;52.196;20.952;2023-02-15T00:41:02;75.18;;;36.42;;
34317;SDS011;20582;52.196;20.952;2023-02-15T00:43:29;76.85;;;37.50;;
34317;SDS011;20582;52.196;20.952;2023-02-15T00:45:55;73.40;;;34.58;;
34317;SDS011;20582;52.196;20.952;2023-02-15T00:48:21;70.88;;;36.03;;
34317;SDS011;20582;52.196;20.952;2023-02-15T00:50:51;73.63;;;36.38;;
34317;SDS011;20582;52.196;20.952;2023-02-15T00:53:18;73.40;;;35.50;;
34317;SDS011;20582;52.196;20.952;2023-02-15T00:55:44;77.05;;;36.72;;
34317;SDS011;20582;52.196;20.952;2023-02-15T00:58:10;79.82;;;37.63;;
34317;SDS011;20582;52.196;20.952;2023-02-15T01:00:36;75.32;;;37.78;;
34317;SDS011;20582;52.196;20.952;2023-02-15T01:03:03;77.28;;;38.42;;
34317;SDS011;20582;52.196;20.952;2023-02-15T01:05:29;75.32;;;37.47;;
34317;SDS011;20582;52.196;20.952;2023-02-15T01:07:56;80.00;;;37.28;;
34317;SDS011;20582;52.196;20.952;2023-02-15T01:10:22;73.65;;;38.35;;
34317;SDS011;20582;52.196;20.952;2023-02-15T01:12:49;72.43;;;37.92;;
34317;SDS011;20582;52.196;20.952;2023-02-15T01:15:15;74.65;;;38.08;;
34317;SDS011;20582;52.196;20.952;2023-02-15T01:17:41;76.05;;;38.40;;
34317;SDS011;20582;52.196;20.952;2023-02-15T01:20:10;76.30;;;38.63;;
34317;SDS011;20582;52.196;20.952;2023-02-15T01:22:37;79.13;;;38.45;;
34317;SDS011;20582;52.196;20.952;2023-02-15T01:25:03;72.68;;;35.35;;
34317;SDS011;20582;52.196;20.952;2023-02-15T01:27:29;74.03;;;34.80;;
34317;SDS011;20582;52.196;20.952;2023-02-15T01:29:57;76.97;;;38.53;;
34317;SDS011;20582;52.196;20.952;2023-02-15T01:32:23;77.75;;;35.75;;
34317;SDS011;20582;52.196;20.952;2023-02-15T01:34:49;76.80;;;38.55;;
34317;SDS011;20582;52.196;20.952;2023-02-15T01:37:15;75.97;;;37.92;;
34317;SDS011;20582;52.196;20.952;2023-02-15T01:39:41;78.07;;;38.47;;
34317;SDS011;20582;52.196;20.952;2023-02-15T01:42:10;76.72;;;37.22;;
34317;SDS011;20582;52.196;20.952;2023-02-15T01:47:12;76.00;;;35.83;;
34317;SDS011;20582;52.196;20.952;2023-02-15T01:49:39;76.20;;;37.08;;
34317;SDS011;20582;52.196;20.952;2023-02-15T01:52:06;82.07;;;39.58;;
34317;SDS011;20582;52.196;20.952;2023-02-15T01:54:33;83.65;;;39.17;;
34317;SDS011;20582;52.196;20.952;2023-02-15T01:57:02;81.25;;;38.38;;
34317;SDS011;20582;52.196;20.952;2023-02-15T01:59:29;80.95;;;39.55;;
34317;SDS011;20582;52.196;20.952;2023-02-15T02:01:57;87.68;;;39.20;;
34317;SDS011;20582;52.196;20.952;2023-02-15T02:04:25;81.38;;;40.53;;
34317;SDS011;20582;52.196;20.952;2023-02-15T02:06:54;84.55;;;38.70;;
34317;SDS011;20582;52.196;20.952;2023-02-15T02:09:20;78.82;;;38.25;;
34317;SDS011;20582;52.196;20.952;2023-02-15T02:11:46;75.22;;;37.38;;
34317;SDS011;20582;52.196;20.952;2023-02-15T02:14:13;73.85;;;34.75;;
34317;SDS011;20582;52.196;20.952;2023-02-15T02:16:52;79.47;;;35.83;;
34317;SDS011;20582;52.196;20.952;2023-02-15T02:22:13;81.28;;;38.15;;
34317;SDS011;20582;52.196;20.952;2023-02-15T02:24:55;77.40;;;37.38;;
34317;SDS011;20582;52.196;20.952;2023-02-15T02:27:33;74.28;;;35.55;;
34317;SDS011;20582;52.196;20.952;2023-02-15T02:32:48;71.90;;;33.75;;
34317;SDS011;20582;52.196;20.952;2023-02-15T02:35:19;74.82;;;35.83;;
34317;SDS011;20582;52.196;20.952;2023-02-15T02:42:40;75.38;;;36.15;;
34317;SDS011;20582;52.196;20.952;2023-02-15T02:45:08;77.43;;;37.13;;
34317;SDS011;20582;52.196;20.952;2023-02-15T02:47:39;79.63;;;35.20;;
34317;SDS011;20582;52.196;20.952;2023-02-15T02:50:07;78.03;;;35.60;;
34317;SDS011;20582;52.196;20.952;2023-02-15T02:52:38;74.53;;;34.85;;
34317;SDS011;20582;52.196;20.952;2023-02-15T02:55:07;78.13;;;37.00;;
34317;SDS011;20582;52.196;20.952;2023-02-15T02:57:35;74.60;;;34.88;;
34317;SDS011;20582;52.196;20.952;2023-02-15T03:00:03;79.63;;;37.83;;
34317;SDS011;20582;52.196;20.952;2023-02-15T03:02:31;79.68;;;38.10;;
34317;SDS011;20582;52.196;20.952;2023-02-15T03:05:02;75.07;;;35.70;;
34317;SDS011;20582;52.196;20.952;2023-02-15T03:07:29;74.30;;;32.97;;
34317;SDS011;20582;52.196;20.952;2023-02-15T03:09:57;75.15;;;35.75;;
34317;SDS011;20582;52.196;20.952;2023-02-15T03:12:24;71.78;;;34.13;;
34317;SDS011;20582;52.196;20.952;2023-02-15T03:14:51;75.82;;;35.38;;
34317;SDS011;20582;52.196;20.952;2023-02-15T03:17:19;68.38;;;33.28;;
34317;SDS011;20582;52.196;20.952;2023-02-15T03:19:46;68.75;;;34.67;;
34317;SDS011;20582;52.196;20.952;2023-02-15T03:22:24;75.28;;;33.85;;
34317;SDS011;20582;52.196;20.952;2023-02-15T03:27:18;77.07;;;36.80;;
34317;SDS011;20582;52.196;20.952;2023-02-15T03:29:45;76.47;;;36.67;;
34317;SDS011;20582;52.196;20.952;2023-02-15T03:32:12;76.22;;;34.30;;
34317;SDS011;20582;52.196;20.952;2023-02-15T03:34:40;79.03;;;35.67;;
34317;SDS011;20582;52.196;20.952;2023-02-15T03:39:54;72.63;;;35.13;;
34317;SDS011;20582;52.196;20.952;2023-02-15T03:42:42;76.57;;;35.67;;
34317;SDS011;20582;52.196;20.952;2023-02-15T03:45:09;76.85;;;33.97;;
34317;SDS011;20582;52.196;20.952;2023-02-15T03:47:38;74.00;;;33.40;;
34317;SDS011;20582;52.196;20.952;2023-02-15T03:50:08;78.93;;;35.88;;
34317;SDS011;20582;52.196;20.952;2023-02-15T03:52:55;69.55;;;32.72;;
34317;SDS011;20582;52.196;20.952;2023-02-15T03:55:22;69.10;;;35.03;;
34317;SDS011;20582;52.196;20.952;2023-02-15T03:57:49;67.75;;;32.95;;
34317;SDS011;20582;52.196;20.952;2023-02-15T04:00:35;64.60;;;31.42;;
34317;SDS011;20582;52.196;20.952;2023-02-15T04:03:26;68.53;;;32.70;;
34317;SDS011;20582;52.196;20.952;2023-02-15T04:05:56;38.78;;;21.52;;
34317;SDS011;20582;52.196;20.952;2023-02-15T04:08:22;41.60;;;19.27;;
34317;SDS011;20582;52.196;20.952;2023-02-15T04:11:08;43.53;;;22.38;;
34317;SDS011;20582;52.196;20.952;2023-02-15T04:13:34;43.65;;;23.73;;
34317;SDS011;20582;52.196;20.952;2023-02-15T04:16:00;50.13;;;24.00;;
34317;SDS011;20582;52.196;20.952;2023-02-15T04:18:33;45.25;;;22.52;;
34317;SDS011;20582;52.196;20.952;2023-02-15T04:21:18;50.10;;;24.55;;
34317;SDS011;20582;52.196;20.952;2023-02-15T04:24:03;38.50;;;22.30;;
34317;SDS011;20582;52.196;20.952;2023-02-15T04:26:48;47.65;;;24.23;;
34317;SDS011;20582;52.196;20.952;2023-02-15T04:29:17;46.05;;;23.55;;
34317;SDS011;20582;52.196;20.952;2023-02-15T04:31:43;44.40;;;22.15;;
34317;SDS011;20582;52.196;20.952;2023-02-15T04:34:09;42.25;;;22.70;;
34317;SDS011;20582;52.196;20.952;2023-02-15T04:36:36;47.08;;;24.83;;
34317;SDS011;20582;52.196;20.952;2023-02-15T04:39:02;43.95;;;23.05;;
34317;SDS011;20582;52.196;20.952;2023-02-15T04:41:28;41.53;;;21.65;;
34317;SDS011;20582;52.196;20.952;2023-02-15T04:43:54;46.17;;;23.85;;
34317;SDS011;20582;52.196;20.952;2023-02-15T04:46:21;42.83;;;21.58;;
34317;SDS011;20582;52.196;20.952;2023-02-15T04:48:47;41.90;;;22.15;;
34317;SDS011;20582;52.196;20.952;2023-02-15T04:51:13;46.13;;;23.33;;
34317;SDS011;20582;52.196;20.952;2023-02-15T04:53:39;41.90;;;22.23;;
34317;SDS011;20582;52.196;20.952;2023-02-15T04:56:05;40.72;;;21.70;;
34317;SDS011;20582;52.196;20.952;2023-02-15T04:58:31;42.25;;;23.67;;
34317;SDS011;20582;52.196;20.952;2023-02-15T05:00:57;48.42;;;24.30;;
34317;SDS011;20582;52.196;20.952;2023-02-15T05:03:23;47.03;;;24.80;;
34317;SDS011;20582;52.196;20.952;2023-02-15T05:05:50;47.28;;;23.30;;
34317;SDS011;20582;52.196;20.952;2023-02-15T05:08:16;51.78;;;26.13;;
34317;SDS011;20582;52.196;20.952;2023-02-15T05:10:42;45.55;;;25.73;;
34317;SDS011;20582;52.196;20.952;2023-02-15T05:13:08;46.33;;;24.90;;
34317;SDS011;20582;52.196;20.952;2023-02-15T05:15:34;47.63;;;25.33;;
34317;SDS011;20582;52.196;20.952;2023-02-15T05:18:00;44.30;;;24.40;;
34317;SDS011;20582;52.196;20.952;2023-02-15T05:20:26;46.25;;;21.70;;
34317;SDS011;20582;52.196;20.952;2023-02-15T05:22:53;43.03;;;22.30;;
34317;SDS011;20582;52.196;20.952;2023-02-15T05:25:19;41.80;;;22.65;;
34317;SDS011;20582;52.196;20.952;2023-02-15T05:28:04;44.33;;;24.40;;
34317;SDS011;20582;52.196;20.952;2023-02-15T05:30:45;44.53;;;23.48;;
34317;SDS011;20582;52.196;20.952;2023-02-15T05:33:11;44.55;;;23.75;;
34317;SDS011;20582;52.196;20.952;2023-02-15T05:35:37;44.80;;;22.73;;
34317;SDS011;20582;52.196;20.952;2023-02-15T05:38:03;44.33;;;24.27;;
34317;SDS011;20582;52.196;20.952;2023-02-15T05:40:29;40.35;;;20.98;;
34317;SDS011;20582;52.196;20.952;2023-02-15T05:42:55;50.13;;;24.27;;
34317;SDS011;20582;52.196;20.952;2023-02-15T05:45:21;49.67;;;26.33;;
34317;SDS011;20582;52.196;20.952;2023-02-15T05:47:47;47.97;;;23.02;;
34317;SDS011;20582;52.196;20.952;2023-02-15T05:50:13;48.47;;;24.00;;
34317;SDS011;20582;52.196;20.952;2023-02-15T05:52:39;45.63;;;24.13;;
34317;SDS011;20582;52.196;20.952;2023-02-15T05:55:06;41.33;;;21.75;;
34317;SDS011;20582;52.196;20.952;2023-02-15T05:57:33;46.40;;;23.40;;
34317;SDS011;20582;52.196;20.952;2023-02-15T05:59:59;44.60;;;22.77;;
34317;SDS011;20582;52.196;20.952;2023-02-15T06:02:25;51.53;;;27.20;;
34317;SDS011;20582;52.196;20.952;2023-02-15T06:04:51;43.08;;;22.35;;
34317;SDS011;20582;52.196;20.952;2023-02-15T06:07:17;52.53;;;24.45;;
34317;SDS011;20582;52.196;20.952;2023-02-15T06:09:43;46.17;;;23.05;;
34317;SDS011;20582;52.196;20.952;2023-02-15T06:12:09;49.05;;;24.40;;
34317;SDS011;20582;52.196;20.952;2023-02-15T06:14:35;49.45;;;26.42;;
34317;SDS011;20582;52.196;20.952;2023-02-15T06:17:01;45.83;;;23.90;;
34317;SDS011;20582;52.196;20.952;2023-02-15T06:19:27;50.03;;;24.95;;
34317;SDS011;20582;52.196;20.952;2023-02-15T06:21:53;52.55;;;25.13;;
34317;SDS011;20582;52.196;20.952;2023-02-15T06:24:19;47.55;;;24.95;;
34317;SDS011;20582;52.196;20.952;2023-02-15T06:26:45;49.92;;;23.77;;
34317;SDS011;20582;52.196;20.952;2023-02-15T06:29:11;54.50;;;27.30;;
34317;SDS011;20582;52.196;20.952;2023-02-15T06:31:36;54.58;;;27.92;;
34317;SDS011;20582;52.196;20.952;2023-02-15T06:34:02;58.47;;;30.23;;
34317;SDS011;20582;52.196;20.952;2023-02-15T06:36:29;51.08;;;24.10;;
34317;SDS011;20582;52.196;20.952;2023-02-15T06:38:55;49.50;;;24.33;;
34317;SDS011;20582;52.196;20.952;2023-02-15T06:41:21;44.35;;;22.33;;
34317;SDS011;20582;52.196;20.952;2023-02-15T06:43:47;43.53;;;21.15;;
34317;SDS011;20582;52.196;20.952;2023-02-15T06:46:13;50.38;;;23.05;;
34317;SDS011;20582;52.196;20.952;2023-02-15T06:48:39;49.58;;;23.27;;
34317;SDS011;20582;52.196;20.952;2023-02-15T06:51:05;46.78;;;22.50;;
34317;SDS011;20582;52.196;20.952;2023-02-15T06:53:31;48.05;;;23.52;;
34317;SDS011;20582;52.196;20.952;2023-02-15T06:56:04;49.33;;;24.48;;
34317;SDS011;20582;52.196;20.952;2023-02-15T06:58:31;49.00;;;24.60;;
34317;SDS011;20582;52.196;20.952;2023-02-15T07:00:58;50.70;;;24.65;;
34317;SDS011;20582;52.196;20.952;2023-02-15T07:03:23;48.25;;;23.88;;
34317;SDS011;20582;52.196;20.952;2023-02-15T07:05:53;52.40;;;26.73;;
34317;SDS011;20582;52.196;20.952;2023-02-15T07:08:19;49.37;;;22.93;;
34317;SDS011;20582;52.196;20.952;2023-02-15T07:10:45;55.45;;;24.65;;
34317;SDS011;20582;52.196;20.952;2023-02-15T07:13:11;53.97;;;25.40;;
34317;SDS011;20582;52.196;20.952;2023-02-15T07:15:37;53.35;;;23.67;;
34317;SDS011;20582;52.196;20.952;2023-02-15T07:18:03;47.45;;;23.38;;
34317;SDS011;20582;52.196;20.952;2023-02-15T07:20:30;50.38;;;23.83;;
34317;SDS011;20582;52.196;20.952;2023-02-15T07:22:56;46.60;;;22.80;;
34317;SDS011;20582;52.196;20.952;2023-02-15T07:25:22;51.05;;;26.42;;
34317;SDS011;20582;52.196;20.952;2023-02-15T07:27:48;48.97;;;24.65;;
34317;SDS011;20582;52.196;20.952;2023-02-15T07:30:15;52.28;;;26.02;;
34317;SDS011;20582;52.196;20.952;2023-02-15T07:32:41;52.08;;;24.92;;
34317;SDS011;20582;52.196;20.952;2023-02-15T07:35:25;52.70;;;23.60;;
34317;SDS011;20582;52.196;20.952;2023-02-15T07:37:52;50.08;;;24.65;;
34317;SDS011;20582;52.196;20.952;2023-02-15T07:40:18;51.28;;;24.58;;
34317;SDS011;20582;52.196;20.952;2023-02-15T07:42:44;52.08;;;24.40;;
34317;SDS011;20582;52.196;20.952;2023-02-15T07:45:10;47.33;;;23.13;;
34317;SDS011;20582;52.196;20.952;2023-02-15T07:47:36;53.17;;;24.35;;
34317;SDS011;20582;52.196;20.952;2023-02-15T07:50:02;56.08;;;23.70;;
34317;SDS011;20582;52.196;20.952;2023-02-15T07:52:28;52.45;;;22.83;;
34317;SDS011;20582;52.196;20.952;2023-02-15T07:54:54;48.15;;;22.10;;
34317;SDS011;20582;52.196;20.952;2023-02-15T07:57:20;44.45;;;21.60;;
34317;SDS011;20582;52.196;20.952;2023-02-15T07:59:45;51.00;;;23.85;;
34317;SDS011;20582;52.196;20.952;2023-02-15T08:02:11;50.22;;;22.60;;
34317;SDS011;20582;52.196;20.952;2023-02-15T08:04:38;42.50;;;19.17;;
34317;SDS011;20582;52.196;20.952;2023-02-15T08:07:04;46.40;;;21.40;;
34317;SDS011;20582;52.196;20.952;2023-02-15T08:09:30;46.03;;;20.08;;
34317;SDS011;20582;52.196;20.952;2023-02-15T08:11:56;48.53;;;22.20;;
34317;SDS011;20582;52.196;20.952;2023-02-15T08:14:22;40.28;;;18.23;;
34317;SDS011;20582;52.196;20.952;2023-02-15T08:16:52;40.28;;;18.30;;
34317;SDS011;20582;52.196;20.952;2023-02-15T08:19:21;42.70;;;19.45;;
34317;SDS011;20582;52.196;20.952;2023-02-15T08:21:51;43.22;;;19.38;;
34317;SDS011;20582;52.196;20.952;2023-02-15T08:24:18;38.63;;;18.30;;
34317;SDS011;20582;52.196;20.952;2023-02-15T08:26:45;38.60;;;18.00;;
34317;SDS011;20582;52.196;20.952;2023-02-15T08:29:13;36.75;;;17.17;;
34317;SDS011;20582;52.196;20.952;2023-02-15T08:31:39;39.45;;;18.17;;
34317;SDS011;20582;52.196;20.952;2023-02-15T08:34:07;37.10;;;18.05;;
34317;SDS011;20582;52.196;20.952;2023-02-15T08:36:33;37.20;;;17.55;;
34317;SDS011;20582;52.196;20.952;2023-02-15T08:39:00;38.95;;;17.65;;
34317;SDS011;20582;52.196;20.952;2023-02-15T08:41:27;38.05;;;17.90;;
34317;SDS011;20582;52.196;20.952;2023-02-15T08:43:54;33.10;;;16.77;;
34317;SDS011;20582;52.196;20.952;2023-02-15T08:46:21;43.88;;;20.05;;
34317;SDS011;20582;52.196;20.952;2023-02-15T08:48:48;40.63;;;18.05;;
34317;SDS011;20582;52.196;20.952;2023-02-15T08:51:18;40.00;;;19.35;;
34317;SDS011;20582;52.196;20.952;2023-02-15T08:53:45;39.35;;;18.88;;
34317;SDS011;20582;52.196;20.952;2023-02-15T08:56:14;46.25;;;20.98;;
34317;SDS011;20582;52.196;20.952;2023-02-15T08:58:40;41.10;;;18.55;;
34317;SDS011;20582;52.196;20.952;2023-02-15T09:01:10;44.25;;;20.38;;
34317;SDS011;20582;52.196;20.952;2023-02-15T09:03:36;45.10;;;19.33;;
34317;SDS011;20582;52.196;20.952;2023-02-15T09:06:02;42.35;;;19.33;;
34317;SDS011;20582;52.196;20.952;2023-02-15T09:08:28;43.65;;;18.38;;
34317;SDS011;20582;52.196;20.952;2023-02-15T09:11:03;35.90;;;16.98;;
34317;SDS011;20582;52.196;20.952;2023-02-15T09:13:29;42.00;;;18.65;;
34317;SDS011;20582;52.196;20.952;2023-02-15T09:15:59;40.47;;;17.10;;
34317;SDS011;20582;52.196;20.952;2023-02-15T09:18:25;40.95;;;17.27;;
34317;SDS011;20582;52.196;20.952;2023-02-15T09:20:51;42.35;;;19.13;;
34317;SDS011;20582;52.196;20.952;2023-02-15T09:23:17;39.38;;;17.42;;
34317;SDS011;20582;52.196;20.952;2023-02-15T09:25:43;39.08;;;18.58;;
34317;SDS011;20582;52.196;20.952;2023-02-15T09:28:09;40.53;;;18.20;;
34317;SDS011;20582;52.196;20.952;2023-02-15T09:30:35;43.17;;;19.00;;
34317;SDS011;20582;52.196;20.952;2023-02-15T09:33:00;44.67;;;18.48;;
34317;SDS011;20582;52.196;20.952;2023-02-15T09:35:26;42.58;;;18.27;;
34317;SDS011;20582;52.196;20.952;2023-02-15T09:37:52;45.15;;;19.85;;
34317;SDS011;20582;52.196;20.952;2023-02-15T09:40:18;42.25;;;19.60;;
34317;SDS011;20582;52.196;20.952;2023-02-15T09:48:04;43.65;;;20.15;;
34317;SDS011;20582;52.196;20.952;2023-02-15T09:50:43;40.60;;;20.52;;
34317;SDS011;20582;52.196;20.952;2023-02-15T10:11:15;45.55;;;21.45;;
34317;SDS011;20582;52.196;20.952;2023-02-15T10:19:27;41.75;;;19.23;;
34317;SDS011;20582;52.196;20.952;2023-02-15T10:22:02;38.15;;;18.50;;
34317;SDS011;20582;52.196;20.952;2023-02-15T10:27:12;33.78;;;17.40;;
34317;SDS011;20582;52.196;20.952;2023-02-15T10:29:42;32.00;;;16.30;;
34317;SDS011;20582;52.196;20.952;2023-02-15T10:44:54;29.65;;;15.93;;
34317;SDS011;20582;52.196;20.952;2023-02-15T10:57:57;36.78;;;17.23;;
34317;SDS011;20582;52.196;20.952;2023-02-15T11:07:55;40.10;;;19.33;;
34317;SDS011;20582;52.196;20.952;2023-02-15T11:10:33;34.75;;;16.33;;
34317;SDS011;20582;52.196;20.952;2023-02-15T11:13:02;36.95;;;18.13;;
34317;SDS011;20582;52.196;20.952;2023-02-15T11:18:16;39.42;;;18.90;;
34317;SDS011;20582;52.196;20.952;2023-02-15T11:20:51;37.85;;;18.50;;
34317;SDS011;20582;52.196;20.952;2023-02-15T11:23:19;37.50;;;16.90;;
34317;SDS011;20582;52.196;20.952;2023-02-15T11:25:46;38.95;;;17.60;;
34317;SDS011;20582;52.196;20.952;2023-02-15T11:31:24;45.13;;;19.88;;
34317;SDS011;20582;52.196;20.952;2023-02-15T11:33:55;41.63;;;20.52;;
34317;SDS011;20582;52.196;20.952;2023-02-15T11:36:27;45.42;;;22.27;;
34317;SDS011;20582;52.196;20.952;2023-02-15T11:38:58;44.90;;;20.65;;
34317;SDS011;20582;52.196;20.952;2023-02-15T11:41:27;47.00;;;21.40;;
34317;SDS011;20582;52.196;20.952;2023-02-15T11:43:56;49.85;;;21.70;;
34317;SDS011;20582;52.196;20.952;2023-02-15T11:46:24;52.50;;;23.70;;
34317;SDS011;20582;52.196;20.952;2023-02-15T11:48:50;56.70;;;23.55;;
34317;SDS011;20582;52.196;20.952;2023-02-15T11:51:17;54.20;;;23.38;;
34317;SDS011;20582;52.196;20.952;2023-02-15T11:53:44;63.72;;;27.67;;
34317;SDS011;20582;52.196;20.952;2023-02-15T11:56:14;53.80;;;24.85;;
34317;SDS011;20582;52.196;20.952;2023-02-15T11:58:41;54.38;;;23.83;;
34317;SDS011;20582;52.196;20.952;2023-02-15T12:01:21;56.08;;;24.75;;
34317;SDS011;20582;52.196;20.952;2023-02-15T12:03:52;60.97;;;24.88;;
34317;SDS011;20582;52.196;20.952;2023-02-15T12:06:24;62.17;;;26.38;;
34317;SDS011;20582;52.196;20.952;2023-02-15T12:08:54;59.60;;;25.77;;
34317;SDS011;20582;52.196;20.952;2023-02-15T12:11:24;55.92;;;25.10;;
34317;SDS011;20582;52.196;20.952;2023-02-15T12:16:21;56.80;;;25.13;;
34317;SDS011;20582;52.196;20.952;2023-02-15T12:18:47;55.35;;;24.42;;
34317;SDS011;20582;52.196;20.952;2023-02-15T12:21:27;48.63;;;22.50;;
34317;SDS011;20582;52.196;20.952;2023-02-15T12:23:55;49.20;;;23.50;;
34317;SDS011;20582;52.196;20.952;2023-02-15T12:26:29;53.28;;;21.55;;
34317;SDS011;20582;52.196;20.952;2023-02-15T12:28:57;51.33;;;22.38;;
34317;SDS011;20582;52.196;20.952;2023-02-15T12:33:53;53.78;;;24.50;;
34317;SDS011;20582;52.196;20.952;2023-02-15T12:36:24;59.17;;;26.27;;
34317;SDS011;20582;52.196;20.952;2023-02-15T12:41:37;62.33;;;27.70;;
34317;SDS011;20582;52.196;20.952;2023-02-15T12:46:31;63.35;;;29.00;;
34317;SDS011;20582;52.196;20.952;2023-02-15T12:49:05;58.58;;;26.70;;
34317;SDS011;20582;52.196;20.952;2023-02-15T12:51:41;53.60;;;25.88;;
34317;SDS011;20582;52.196;20.952;2023-02-15T12:56:49;65.85;;;27.83;;
34317;SDS011;20582;52.196;20.952;2023-02-15T12:59:15;54.13;;;26.02;;
34317;SDS011;20582;52.196;20.952;2023-02-15T13:01:41;65.25;;;29.33;;
34317;SDS011;20582;52.196;20.952;2023-02-15T13:06:49;68.35;;;28.85;;
34317;SDS011;20582;52.196;20.952;2023-02-15T13:09:20;61.75;;;28.35;;
34317;SDS011;20582;52.196;20.952;2023-02-15T13:11:47;60.60;;;28.35;;
34317;SDS011;20582;52.196;20.952;2023-02-15T13:16:42;72.25;;;33.05;;
34317;SDS011;20582;52.196;20.952;2023-02-15T13:19:15;75.15;;;33.65;;
34317;SDS011;20582;52.196;20.952;2023-02-15T13:21:49;66.40;;;28.02;;
34317;SDS011;20582;52.196;20.952;2023-02-15T13:27:00;57.35;;;24.20;;
34317;SDS011;20582;52.196;20.952;2023-02-15T13:29:28;56.50;;;24.38;;
34317;SDS011;20582;52.196;20.952;2023-02-15T13:31:55;64.03;;;29.90;;
34317;SDS011;20582;52.196;20.952;2023-02-15T13:34:29;62.58;;;28.80;;
34317;SDS011;20582;52.196;20.952;2023-02-15T13:37:16;60.30;;;26.80;;
34317;SDS011;20582;52.196;20.952;2023-02-15T13:39:48;63.58;;;26.10;;
34317;SDS011;20582;52.196;20.952;2023-02-15T13:42:20;57.75;;;23.67;;
34317;SDS011;20582;52.196;20.952;2023-02-15T14:03:46;65.53;;;30.17;;
34317;SDS011;20582;52.196;20.952;2023-02-15T14:14:34;61.03;;;26.95;;
34317;SDS011;20582;52.196;20.952;2023-02-15T14:19:39;63.78;;;28.75;;
34317;SDS011;20582;52.196;20.952;2023-02-15T14:22:25;65.88;;;28.83;;
34317;SDS011;20582;52.196;20.952;2023-02-15T14:30:25;71.97;;;32.17;;
34317;SDS011;20582;52.196;20.952;2023-02-15T14:32:53;74.97;;;32.28;;
34317;SDS011;20582;52.196;20.952;2023-02-15T14:35:21;56.58;;;23.83;;
34317;SDS011;20582;52.196;20.952;2023-02-15T14:40:29;63.47;;;28.60;;
34317;SDS011;20582;52.196;20.952;2023-02-15T14:43:20;66.57;;;27.05;;
34317;SDS011;20582;52.196;20.952;2023-02-15T14:48:17;72.30;;;32.58;;
34317;SDS011;20582;52.196;20.952;2023-02-15T14:50:44;64.38;;;29.65;;
34317;SDS011;20582;52.196;20.952;2023-02-15T14:53:22;77.38;;;31.92;;
34317;SDS011;20582;52.196;20.952;2023-02-15T14:56:04;72.45;;;31.05;;
34317;SDS011;20582;52.196;20.952;2023-02-15T14:58:30;75.68;;;32.17;;
34317;SDS011;20582;52.196;20.952;2023-02-15T15:01:03;80.60;;;33.70;;
34317;SDS011;20582;52.196;20.952;2023-02-15T15:03:30;75.03;;;30.77;;
34317;SDS011;20582;52.196;20.952;2023-02-15T15:05:56;81.38;;;34.67;;
34317;SDS011;20582;52.196;20.952;2023-02-15T15:08:26;74.28;;;30.13;;
34317;SDS011;20582;52.196;20.952;2023-02-15T15:10:54;66.68;;;27.27;;
34317;SDS011;20582;52.196;20.952;2023-02-15T15:15:55;60.33;;;27.30;;
34317;SDS011;20582;52.196;20.952;2023-02-15T15:21:06;58.95;;;25.65;;
34317;SDS011;20582;52.196;20.952;2023-02-15T15:23:37;57.00;;;24.95;;
34317;SDS011;20582;52.196;20.952;2023-02-15T15:26:23;63.33;;;25.63;;
34317;SDS011;20582;52.196;20.952;2023-02-15T15:31:27;59.78;;;25.67;;
34317;SDS011;20582;52.196;20.952;2023-02-15T15:47:16;75.93;;;30.25;;
34317;SDS011;20582;52.196;20.952;2023-02-15T15:49:46;76.13;;;34.17;;
34317;SDS011;20582;52.196;20.952;2023-02-15T15:52:16;77.75;;;32.92;;
34317;SDS011;20582;52.196;20.952;2023-02-15T15:54:43;77.40;;;30.30;;
34317;SDS011;20582;52.196;20.952;2023-02-15T16:00:15;63.30;;;25.08;;
34317;SDS011;20582;52.196;20.952;2023-02-15T16:02:51;65.28;;;27.33;;
34317;SDS011;20582;52.196;20.952;2023-02-15T16:05:18;64.45;;;26.15;;
34317;SDS011;20582;52.196;20.952;2023-02-15T16:07:44;64.82;;;25.40;;
34317;SDS011;20582;52.196;20.952;2023-02-15T16:10:21;56.83;;;23.60;;
34317;SDS011;20582;52.196;20.952;2023-02-15T16:12:48;55.50;;;24.83;;
34317;SDS011;20582;52.196;20.952;2023-02-15T16:15:16;56.15;;;25.15;;
34317;SDS011;20582;52.196;20.952;2023-02-15T16:17:43;63.72;;;25.75;;
34317;SDS011;20582;52.196;20.952;2023-02-15T16:20:23;60.78;;;27.55;;
34317;SDS011;20582;52.196;20.952;2023-02-15T16:22:53;58.00;;;26.27;;
34317;SDS011;20582;52.196;20.952;2023-02-15T16:27:49;56.47;;;25.13;;
34317;SDS011;20582;52.196;20.952;2023-02-15T16:32:48;56.47;;;25.42;;
34317;SDS011;20582;52.196;20.952;2023-02-15T16:35:16;58.03;;;25.52;;
34317;SDS011;20582;52.196;20.952;2023-02-15T16:37:42;55.60;;;26.15;;
34317;SDS011;20582;52.196;20.952;2023-02-15T16:40:25;53.35;;;23.77;;
34317;SDS011;20582;52.196;20.952;2023-02-15T16:43:02;59.33;;;27.23;;
34317;SDS011;20582;52.196;20.952;2023-02-15T16:45:31;56.35;;;26.33;;
34317;SDS011;20582;52.196;20.952;2023-02-15T16:47:58;52.47;;;23.08;;
34317;SDS011;20582;52.196;20.952;2023-02-15T16:50:31;53.47;;;23.90;;
34317;SDS011;20582;52.196;20.952;2023-02-15T16:52:58;62.67;;;27.98;;
34317;SDS011;20582;52.196;20.952;2023-02-15T16:55:25;57.05;;;24.23;;
34317;SDS011;20582;52.196;20.952;2023-02-15T16:57:54;59.50;;;24.73;;
34317;SDS011;20582;52.196;20.952;2023-02-15T17:00:22;61.42;;;25.35;;
34317;SDS011;20582;52.196;20.952;2023-02-15T17:02:55;64.95;;;25.65;;
34317;SDS011;20582;52.196;20.952;2023-02-15T17:05:25;62.17;;;26.83;;
34317;SDS011;20582;52.196;20.952;2023-02-15T17:08:13;60.85;;;28.55;;
34317;SDS011;20582;52.196;20.952;2023-02-15T17:10:41;66.22;;;28.77;;
34317;SDS011;20582;52.196;20.952;2023-02-15T17:13:11;64.10;;;26.35;;
34317;SDS011;20582;52.196;20.952;2023-02-15T17:15:42;65.20;;;27.48;;